createdAt,value
2018-12-18T00:01:36.695Z,32.17
2018-12-18T00:04:06.300Z,30.83
2018-12-18T00:06:35.874Z,31.77
2018-12-18T00:09:06.799Z,32.00
2018-12-18T00:11:36.468Z,30.77
2018-12-18T00:14:06.091Z,32.27
2018-12-18T00:16:35.716Z,31.17
2018-12-18T00:19:05.380Z,32.67
2018-12-18T00:21:35.003Z,33.47
2018-12-18T00:24:04.623Z,29.77
2018-12-18T00:26:34.308Z,27.53
2018-12-18T00:29:03.903Z,28.13
2018-12-18T00:31:35.375Z,28.03
2018-12-18T00:34:04.989Z,28.53
2018-12-18T00:36:34.573Z,28.40
2018-12-18T00:39:04.599Z,27.03
2018-12-18T00:41:34.222Z,30.07
2018-12-18T00:44:04.130Z,29.07
2018-12-18T00:46:33.766Z,27.97
2018-12-18T00:49:03.364Z,29.80
2018-12-18T00:51:33.083Z,28.53
2018-12-18T00:54:02.770Z,27.07
2018-12-18T00:56:32.382Z,25.87
2018-12-18T00:59:01.976Z,28.10
2018-12-18T01:01:31.605Z,25.03
2018-12-18T01:04:01.188Z,26.77
2018-12-18T01:06:31.211Z,25.07
2018-12-18T01:09:00.877Z,25.67
2018-12-18T01:11:30.473Z,24.63
2018-12-18T01:14:00.086Z,25.40
2018-12-18T01:16:29.766Z,25.97
2018-12-18T01:18:59.669Z,24.77
2018-12-18T01:21:29.331Z,25.20
2018-12-18T01:23:58.962Z,24.10
2018-12-18T01:26:28.577Z,22.40
2018-12-18T01:28:59.559Z,23.97
2018-12-18T01:31:29.202Z,22.73
2018-12-18T01:33:59.451Z,23.30
2018-12-18T01:36:28.365Z,23.13
2018-12-18T01:38:58.234Z,21.10
2018-12-18T01:41:27.823Z,20.87
2018-12-18T01:43:57.464Z,21.93
2018-12-18T01:46:27.063Z,21.67
2018-12-18T01:48:56.633Z,20.07
2018-12-18T01:51:26.255Z,20.13
2018-12-18T01:53:55.837Z,20.87
2018-12-18T01:56:25.387Z,21.30
2018-12-18T01:58:54.987Z,20.00
2018-12-18T02:01:25.137Z,20.47
2018-12-18T02:03:54.757Z,20.47
2018-12-18T02:06:24.322Z,20.53
2018-12-18T02:08:53.930Z,19.90
2018-12-18T02:11:23.498Z,20.03
2018-12-18T02:13:53.111Z,19.20
2018-12-18T02:16:22.690Z,20.73
2018-12-18T02:18:52.297Z,19.37
2018-12-18T02:21:21.881Z,20.00
2018-12-18T02:23:51.449Z,20.60
2018-12-18T02:26:21.069Z,19.37
2018-12-18T02:28:50.686Z,18.47
2018-12-18T02:31:20.267Z,19.20
2018-12-18T02:33:49.868Z,20.63
2018-12-18T02:36:19.450Z,22.17
2018-12-18T02:38:49.045Z,20.57
2018-12-18T02:41:18.619Z,20.93
2018-12-18T02:43:48.223Z,22.07
2018-12-18T02:46:17.802Z,19.33
2018-12-18T02:48:47.429Z,21.20
2018-12-18T02:51:17.017Z,21.57
2018-12-18T02:53:46.580Z,21.30
2018-12-18T02:56:16.193Z,22.20
2018-12-18T02:58:45.777Z,21.83
2018-12-18T03:01:15.363Z,24.40
2018-12-18T03:03:44.962Z,23.23
2018-12-18T03:06:14.579Z,23.20
2018-12-18T03:08:44.211Z,25.37
2018-12-18T03:11:18.041Z,23.07
2018-12-18T03:13:47.841Z,24.97
2018-12-18T03:16:17.425Z,32.73
2018-12-18T03:18:47.037Z,28.70
2018-12-18T03:21:17.122Z,24.63
2018-12-18T03:23:46.707Z,23.40
2018-12-18T03:26:16.326Z,23.30
2018-12-18T03:28:45.915Z,25.17
2018-12-18T03:31:15.546Z,25.87
2018-12-18T03:33:45.112Z,24.50
2018-12-18T03:36:14.705Z,24.73
2018-12-18T03:38:44.296Z,33.15
2018-12-18T03:41:13.886Z,26.60
2018-12-18T03:43:43.440Z,24.03
2018-12-18T03:46:13.116Z,25.00
2018-12-18T03:48:42.753Z,25.57
2018-12-18T03:51:12.357Z,25.03
2018-12-18T03:53:41.935Z,26.57
2018-12-18T03:56:11.506Z,25.33
2018-12-18T03:58:41.071Z,23.67
2018-12-18T04:01:10.675Z,26.87
2018-12-18T04:03:40.282Z,25.57
2018-12-18T04:06:09.890Z,26.70
2018-12-18T04:08:39.486Z,26.63
2018-12-18T04:11:09.078Z,27.57
2018-12-18T04:13:38.662Z,26.00
2018-12-18T04:16:08.278Z,28.23
2018-12-18T04:18:37.853Z,26.90
2018-12-18T04:21:08.700Z,27.53
2018-12-18T04:23:38.296Z,28.33
2018-12-18T04:26:07.902Z,27.67
2018-12-18T04:28:37.478Z,26.67
2018-12-18T04:31:08.338Z,29.40
2018-12-18T04:33:37.914Z,28.43
2018-12-18T04:36:07.543Z,25.37
2018-12-18T04:38:37.147Z,25.20
2018-12-18T04:41:07.995Z,26.90
2018-12-18T04:43:37.575Z,27.13
2018-12-18T04:46:07.187Z,27.20
2018-12-18T04:48:36.840Z,26.77
2018-12-18T04:51:06.404Z,28.53
2018-12-18T04:53:37.954Z,27.03
2018-12-18T04:56:07.531Z,27.63
2018-12-18T04:58:37.133Z,27.47
2018-12-18T05:01:06.794Z,28.10
2018-12-18T05:03:36.357Z,25.50
2018-12-18T05:06:05.967Z,26.87
2018-12-18T05:08:35.595Z,27.60
2018-12-18T05:11:05.276Z,25.73
2018-12-18T05:13:34.891Z,30.17
2018-12-18T05:16:04.462Z,29.67
2018-12-18T05:18:34.131Z,26.67
2018-12-18T05:21:03.769Z,28.70
2018-12-18T05:23:33.447Z,28.63
2018-12-18T05:26:03.055Z,28.13
2018-12-18T05:28:32.662Z,28.50
2018-12-18T05:31:02.279Z,29.53
2018-12-18T05:33:31.877Z,31.30
2018-12-18T05:36:01.460Z,27.87
2018-12-18T05:38:31.094Z,28.07
2018-12-18T05:41:00.677Z,28.47
2018-12-18T05:43:30.286Z,28.67
2018-12-18T05:45:59.863Z,29.80
2018-12-18T05:48:30.673Z,27.77
2018-12-18T05:51:00.289Z,30.47
2018-12-18T05:53:29.887Z,29.00
2018-12-18T05:55:59.570Z,30.73
2018-12-18T05:58:29.174Z,31.07
2018-12-18T06:00:58.906Z,33.37
2018-12-18T06:03:28.497Z,32.43
2018-12-18T06:05:58.079Z,33.60
2018-12-18T06:08:27.677Z,31.97
2018-12-18T06:10:57.273Z,30.23
2018-12-18T06:13:26.851Z,32.63
2018-12-18T06:15:56.522Z,30.63
2018-12-18T06:18:26.149Z,31.17
2018-12-18T06:20:55.786Z,33.50
2018-12-18T06:23:25.405Z,34.73
2018-12-18T06:25:55.014Z,34.00
2018-12-18T06:28:24.655Z,36.40
2018-12-18T06:30:54.239Z,34.93
2018-12-18T06:33:23.842Z,33.57
2018-12-18T06:35:53.488Z,33.40
2018-12-18T06:38:23.314Z,31.20
2018-12-18T06:40:52.889Z,30.80
2018-12-18T06:43:22.558Z,31.70
2018-12-18T06:45:52.224Z,31.30
2018-12-18T06:48:21.803Z,30.40
2018-12-18T06:50:51.392Z,27.03
2018-12-18T06:53:22.300Z,29.20
2018-12-18T06:55:51.890Z,29.73
2018-12-18T06:58:21.475Z,28.23
2018-12-18T07:00:51.116Z,31.27
2018-12-18T07:03:20.722Z,30.27
2018-12-18T07:05:54.017Z,27.60
2018-12-18T07:08:23.575Z,32.50
2018-12-18T07:10:53.202Z,35.03
2018-12-18T07:13:22.791Z,31.97
2018-12-18T07:15:52.372Z,32.00
2018-12-18T07:18:22.018Z,29.00
2018-12-18T07:20:51.626Z,30.27
2018-12-18T07:23:21.185Z,31.60
2018-12-18T07:25:50.783Z,30.80
2018-12-18T07:28:21.581Z,30.50
2018-12-18T07:30:51.147Z,29.47
2018-12-18T07:33:20.772Z,29.87
2018-12-18T07:35:50.366Z,30.07
2018-12-18T07:38:19.909Z,30.30
2018-12-18T07:40:50.711Z,29.53
2018-12-18T07:43:20.349Z,29.20
2018-12-18T07:45:49.926Z,54.80
2018-12-18T07:48:20.816Z,33.90
2018-12-18T07:50:50.420Z,33.03
2018-12-18T07:53:20.000Z,31.97
2018-12-18T07:55:50.966Z,32.03
2018-12-18T07:58:20.531Z,33.10
2018-12-18T08:00:50.109Z,35.57
2018-12-18T08:03:19.738Z,34.10
2018-12-18T08:05:49.313Z,35.80
2018-12-18T08:08:19.104Z,37.17
2018-12-18T08:10:48.666Z,31.80
2018-12-18T08:13:19.523Z,34.90
2018-12-18T08:15:49.085Z,34.27
2018-12-18T08:19:48.218Z,32.73
2018-12-18T08:22:17.798Z,32.80
2018-12-18T08:24:47.570Z,31.07
2018-12-18T08:27:17.190Z,29.43
2018-12-18T08:29:46.779Z,30.37
2018-12-18T08:32:16.397Z,34.97
2018-12-18T08:34:45.987Z,34.33
2018-12-18T08:37:15.597Z,32.00
2018-12-18T08:39:45.259Z,32.67
2018-12-18T08:42:14.849Z,66.97
2018-12-18T08:44:44.436Z,34.60
2018-12-18T08:47:14.079Z,33.73
2018-12-18T08:49:43.675Z,33.83
2018-12-18T08:52:13.300Z,36.77
2018-12-18T08:54:44.189Z,34.07
2018-12-18T08:57:13.829Z,35.57
2018-12-18T08:59:43.463Z,41.00
2018-12-18T09:02:13.043Z,40.23
2018-12-18T09:04:42.693Z,36.40
2018-12-18T09:07:12.302Z,37.43
2018-12-18T09:09:41.973Z,37.77
2018-12-18T09:12:14.331Z,38.33
2018-12-18T09:14:52.179Z,42.50
2018-12-18T09:17:27.245Z,40.10
2018-12-18T09:19:56.847Z,38.03
2018-12-18T09:22:26.545Z,40.53
2018-12-18T09:24:56.164Z,38.63
2018-12-18T09:27:25.765Z,37.60
2018-12-18T09:29:55.417Z,39.20
2018-12-18T09:32:25.107Z,38.30
2018-12-18T09:34:54.729Z,37.83
2018-12-18T09:37:24.304Z,40.50
2018-12-18T09:39:55.144Z,37.90
2018-12-18T09:42:30.077Z,39.93
2018-12-18T09:44:59.693Z,38.03
2018-12-18T09:47:29.261Z,37.80
2018-12-18T09:49:58.873Z,39.80
2018-12-18T09:52:28.490Z,38.67
2018-12-18T09:54:58.094Z,36.43
2018-12-18T09:57:33.118Z,40.47
2018-12-18T10:00:02.747Z,42.20
2018-12-18T10:02:32.555Z,40.43
2018-12-18T10:05:02.197Z,37.57
2018-12-18T10:07:31.896Z,37.47
2018-12-18T10:10:01.623Z,36.30
2018-12-18T10:12:39.077Z,39.53
2018-12-18T10:15:08.936Z,36.63
2018-12-18T10:17:39.818Z,40.07
2018-12-18T10:20:11.923Z,39.20
2018-12-18T10:22:41.676Z,39.27
2018-12-18T10:25:11.326Z,43.40
2018-12-18T10:27:40.989Z,41.07
2018-12-18T10:30:10.982Z,43.47
2018-12-18T10:32:40.294Z,45.97
2018-12-18T10:35:09.954Z,38.13
2018-12-18T10:37:39.557Z,43.57
2018-12-18T10:40:10.385Z,41.53
2018-12-18T10:42:39.986Z,39.87
2018-12-18T10:45:14.897Z,39.73
2018-12-18T10:47:44.471Z,40.83
2018-12-18T10:50:15.370Z,38.87
2018-12-18T10:52:44.956Z,38.70
2018-12-18T10:55:14.540Z,40.17
2018-12-18T10:57:44.122Z,36.67
2018-12-18T11:00:18.905Z,37.37
2018-12-18T11:02:48.570Z,41.33
2018-12-18T11:05:18.130Z,38.73
2018-12-18T11:07:47.708Z,37.33
2018-12-18T11:10:17.343Z,41.67
2018-12-18T11:12:53.884Z,39.47
2018-12-18T11:15:23.495Z,37.33
2018-12-18T11:17:53.069Z,36.97
2018-12-18T11:20:22.702Z,42.83
2018-12-18T11:22:52.345Z,44.33
2018-12-18T11:25:21.994Z,41.53
2018-12-18T11:27:51.590Z,37.80
2018-12-18T11:30:21.209Z,37.30
2018-12-18T11:32:50.949Z,34.33
2018-12-18T11:35:20.534Z,35.13
2018-12-18T11:37:51.494Z,33.93
2018-12-18T11:40:21.123Z,34.70
2018-12-18T11:42:50.795Z,34.60
2018-12-18T11:45:20.454Z,34.93
2018-12-18T11:47:50.035Z,35.00
2018-12-18T11:50:19.622Z,32.47
2018-12-18T11:52:50.503Z,33.40
2018-12-18T11:55:20.105Z,34.50
2018-12-18T11:57:50.817Z,34.90
2018-12-18T12:00:20.519Z,35.50
2018-12-18T12:02:50.386Z,36.53
2018-12-18T12:05:19.964Z,36.53
2018-12-18T12:07:49.558Z,37.67
2018-12-18T12:10:19.186Z,45.73
2018-12-18T12:12:48.781Z,45.90
2018-12-18T12:15:18.391Z,45.20
2018-12-18T12:17:47.945Z,45.17
2018-12-18T12:20:17.588Z,46.97
2018-12-18T12:22:47.205Z,50.20
2018-12-18T12:25:16.779Z,50.53
2018-12-18T12:27:51.654Z,46.63
2018-12-18T12:30:21.239Z,44.70
2018-12-18T12:32:50.845Z,48.73
2018-12-18T12:35:20.420Z,50.17
2018-12-18T12:37:50.025Z,50.23
2018-12-18T12:40:19.706Z,49.37
2018-12-18T12:42:49.292Z,47.07
2018-12-18T12:45:18.845Z,46.60
2018-12-18T12:47:49.678Z,43.60
2018-12-18T12:50:19.352Z,43.53
2018-12-18T12:52:50.257Z,46.50
2018-12-18T12:55:19.838Z,43.60
2018-12-18T12:57:49.494Z,44.93
2018-12-18T13:00:19.087Z,41.93
2018-12-18T13:02:51.178Z,43.23
2018-12-18T13:05:20.796Z,44.10
2018-12-18T13:07:50.373Z,44.17
2018-12-18T13:10:20.007Z,45.53
2018-12-18T13:12:49.593Z,45.27
2018-12-18T13:15:19.249Z,47.07
2018-12-18T13:17:48.850Z,45.03
2018-12-18T13:20:18.433Z,46.37
2018-12-18T13:22:49.357Z,47.23
2018-12-18T13:25:18.989Z,49.70
2018-12-18T13:27:48.593Z,49.13
2018-12-18T13:30:19.342Z,45.83
2018-12-18T13:32:49.022Z,47.80
2018-12-18T13:35:18.593Z,49.70
2018-12-18T13:37:48.227Z,51.73
2018-12-18T13:40:18.138Z,53.53
2018-12-18T13:42:47.714Z,58.13
2018-12-18T13:45:17.292Z,56.47
2018-12-18T13:47:46.955Z,59.73
2018-12-18T13:50:16.552Z,54.73
2018-12-18T13:52:46.164Z,64.50
2018-12-18T13:55:19.565Z,61.23
2018-12-18T13:57:49.162Z,64.07
2018-12-18T14:00:18.739Z,62.20
2018-12-18T14:02:48.997Z,67.83
2018-12-18T14:05:18.586Z,71.77
2018-12-18T14:07:48.246Z,65.60
2018-12-18T14:10:17.981Z,66.83
2018-12-18T14:12:52.966Z,63.37
2018-12-18T14:15:22.616Z,61.50
2018-12-18T14:17:52.233Z,62.17
2018-12-18T14:20:21.846Z,63.43
2018-12-18T14:22:51.502Z,61.20
2018-12-18T14:25:21.109Z,61.53
2018-12-18T14:27:50.728Z,61.13
2018-12-18T14:30:20.930Z,63.60
2018-12-18T14:32:50.564Z,62.20
2018-12-18T14:35:20.258Z,61.70
2018-12-18T14:37:49.850Z,61.63
2018-12-18T14:40:19.898Z,61.87
2018-12-18T14:42:49.486Z,66.60
2018-12-18T14:45:19.112Z,72.47
2018-12-18T14:47:48.694Z,71.30
2018-12-18T14:50:18.293Z,68.30
2018-12-18T14:52:49.125Z,73.80
2018-12-18T14:55:18.734Z,73.00
2018-12-18T14:57:48.376Z,79.20
2018-12-18T15:00:17.974Z,82.40
2018-12-18T15:02:47.573Z,72.00
2018-12-18T15:05:17.793Z,69.87
2018-12-18T15:07:46.829Z,63.27
2018-12-18T15:10:16.493Z,81.23
2018-12-18T15:12:53.562Z,78.93
2018-12-18T15:15:23.133Z,85.53
2018-12-18T15:17:52.763Z,77.60
2018-12-18T15:20:22.357Z,73.57
2018-12-18T15:22:53.113Z,76.53
2018-12-18T15:25:22.768Z,71.13
2018-12-18T15:27:52.334Z,73.57
2018-12-18T15:30:26.122Z,76.10
2018-12-18T15:32:52.886Z,68.60
2018-12-18T15:35:22.494Z,72.70
2018-12-18T15:37:52.143Z,68.53
2018-12-18T15:40:21.785Z,65.40
2018-12-18T15:42:51.386Z,65.43
2018-12-18T15:45:20.998Z,61.90
2018-12-18T15:47:50.605Z,63.90
2018-12-18T15:50:23.926Z,57.53
2018-12-18T15:52:53.528Z,56.83
2018-12-18T15:55:24.474Z,57.30
2018-12-18T15:57:54.098Z,58.63
2018-12-18T16:00:24.949Z,58.30
2018-12-18T16:02:54.686Z,57.73
2018-12-18T16:05:26.894Z,58.67
2018-12-18T16:07:56.538Z,58.83
2018-12-18T16:10:26.155Z,56.40
2018-12-18T16:12:56.954Z,57.43
2018-12-18T16:15:28.928Z,57.03
2018-12-18T16:17:58.577Z,53.93
2018-12-18T16:20:28.189Z,56.50
2018-12-18T16:22:57.993Z,57.57
2018-12-18T16:25:27.674Z,59.07
2018-12-18T16:27:57.269Z,61.23
2018-12-18T16:30:26.977Z,59.73
2018-12-18T16:32:56.632Z,67.43
2018-12-18T16:35:26.298Z,65.37
2018-12-18T16:37:56.588Z,65.57
2018-12-18T16:40:26.191Z,66.63
2018-12-18T16:42:55.886Z,61.53
2018-12-18T16:45:25.506Z,62.40
2018-12-18T16:47:56.350Z,60.53
2018-12-18T16:50:26.691Z,59.00
2018-12-18T16:52:55.558Z,54.83
2018-12-18T16:55:25.219Z,56.10
2018-12-18T16:57:54.816Z,57.30
2018-12-18T17:00:25.784Z,53.17
2018-12-18T17:02:55.451Z,52.80
2018-12-18T17:05:25.138Z,50.97
2018-12-18T17:07:54.765Z,52.50
2018-12-18T17:10:24.404Z,48.77
2018-12-18T17:12:58.086Z,47.40
2018-12-18T17:15:27.669Z,42.90
2018-12-18T17:17:58.513Z,43.27
2018-12-18T17:20:28.122Z,40.40
2018-12-18T17:22:57.758Z,35.27
2018-12-18T17:25:27.502Z,36.40
2018-12-18T17:27:57.105Z,39.40
2018-12-18T17:30:26.717Z,38.50
2018-12-18T17:32:56.339Z,37.87
2018-12-18T17:35:26.069Z,37.23
2018-12-18T17:37:55.711Z,39.07
2018-12-18T17:40:26.708Z,39.27
2018-12-18T17:42:56.622Z,37.20
2018-12-18T17:45:26.272Z,38.10
2018-12-18T17:47:58.394Z,37.07
2018-12-18T17:50:27.987Z,36.97
2018-12-18T17:52:57.646Z,37.50
2018-12-18T17:55:29.892Z,35.20
2018-12-18T17:57:59.839Z,34.13
2018-12-18T18:00:29.515Z,35.30
2018-12-18T18:02:59.126Z,34.43
2018-12-18T18:05:30.242Z,38.23
2018-12-18T18:07:59.851Z,33.13
2018-12-18T18:10:29.490Z,36.50
2018-12-18T18:13:00.536Z,35.77
2018-12-18T18:15:30.168Z,37.93
2018-12-18T18:17:59.811Z,38.60
2018-12-18T18:20:29.624Z,37.97
2018-12-18T18:22:59.233Z,40.27
2018-12-18T18:25:29.005Z,42.07
2018-12-18T18:27:58.613Z,45.70
2018-12-18T18:30:28.636Z,46.47
2018-12-18T18:32:58.346Z,46.33
2018-12-18T18:35:28.075Z,43.47
2018-12-18T18:37:57.716Z,44.40
2018-12-18T18:40:28.760Z,45.27
2018-12-18T18:42:58.538Z,44.93
2018-12-18T18:45:28.246Z,44.67
2018-12-18T18:47:59.699Z,43.77
2018-12-18T18:50:29.414Z,44.10
2018-12-18T18:53:00.381Z,60.73
2018-12-18T18:55:30.048Z,69.40
2018-12-18T18:58:00.938Z,52.97
2018-12-18T19:00:30.571Z,53.10
2018-12-18T19:03:00.340Z,52.60
2018-12-18T19:05:31.308Z,56.60
2018-12-18T19:08:00.994Z,55.73
2018-12-18T19:10:33.132Z,55.77
2018-12-18T19:13:02.793Z,48.63
2018-12-18T19:15:32.705Z,49.27
2018-12-18T19:18:05.922Z,49.47
2018-12-18T19:20:35.632Z,47.23
2018-12-18T19:23:13.515Z,45.87
2018-12-18T19:25:43.119Z,42.63
2018-12-18T19:28:14.090Z,46.53
2018-12-18T19:30:43.764Z,38.23
2018-12-18T19:33:13.502Z,35.73
2018-12-18T19:35:45.967Z,46.17
2018-12-18T19:38:15.617Z,50.40
2018-12-18T19:40:45.249Z,44.67
2018-12-18T19:43:15.247Z,49.53
2018-12-18T19:45:45.154Z,47.73
2018-12-18T19:48:15.023Z,55.17
2018-12-18T19:50:48.371Z,56.73
2018-12-18T19:53:18.657Z,57.17
2018-12-18T19:55:48.918Z,58.07
2018-12-18T19:58:20.414Z,56.93
2018-12-18T20:00:52.195Z,56.73
2018-12-18T20:03:23.121Z,60.00
2018-12-18T20:05:52.979Z,60.90
2018-12-18T20:08:23.915Z,57.80
2018-12-18T20:10:53.555Z,57.53
2018-12-18T20:13:23.212Z,56.27
2018-12-18T20:15:55.008Z,55.93
2018-12-18T20:18:24.671Z,61.73
2018-12-18T20:20:55.557Z,57.17
2018-12-18T20:23:27.713Z,61.57
2018-12-18T20:25:59.516Z,58.60
2018-12-18T20:28:29.839Z,57.30
2018-12-18T20:30:59.769Z,60.83
2018-12-18T20:33:29.519Z,60.93
2018-12-18T20:36:00.822Z,65.40
2018-12-18T20:38:31.169Z,61.37
2018-12-18T20:41:00.819Z,64.30
2018-12-18T20:43:30.526Z,59.17
2018-12-18T20:46:00.271Z,57.93
2018-12-18T20:48:30.269Z,56.63
2018-12-18T20:51:01.089Z,60.27
2018-12-18T20:53:31.371Z,57.47
2018-12-18T20:56:03.373Z,61.60
2018-12-18T20:58:34.323Z,64.80
2018-12-18T21:01:04.258Z,65.23
2018-12-18T21:03:33.975Z,62.07
2018-12-18T21:06:03.892Z,56.57
2018-12-18T21:08:33.530Z,60.20
2018-12-18T21:11:04.470Z,54.93
2018-12-18T21:13:36.273Z,53.83
2018-12-18T21:16:07.423Z,52.90
2018-12-18T21:18:37.451Z,56.50
2018-12-18T21:21:07.270Z,58.67
2018-12-18T21:23:37.249Z,58.43
2018-12-18T21:26:07.301Z,61.17
2018-12-18T21:28:38.474Z,59.93
2018-12-18T21:31:08.146Z,54.90
2018-12-18T21:33:38.971Z,62.97
2018-12-18T21:36:08.669Z,58.77
2018-12-18T21:38:38.484Z,62.53
2018-12-18T21:41:10.723Z,62.90
2018-12-18T21:43:46.005Z,64.83
2018-12-18T21:46:16.922Z,61.00
2018-12-18T21:48:46.664Z,60.20
2018-12-18T21:51:18.655Z,69.13
2018-12-18T21:53:48.532Z,62.20
2018-12-18T21:56:20.055Z,65.63
2018-12-18T21:58:51.062Z,66.17
2018-12-18T22:01:22.334Z,61.93
2018-12-18T22:03:54.845Z,62.83
2018-12-18T22:06:24.521Z,63.00
2018-12-18T22:08:54.205Z,60.67
2018-12-18T22:11:24.965Z,63.20
2018-12-18T22:13:54.832Z,66.97
2018-12-18T22:16:25.846Z,62.97
2018-12-18T22:18:58.999Z,61.97
2018-12-18T22:21:29.831Z,63.83
2018-12-18T22:24:00.842Z,62.13
2018-12-18T22:26:30.815Z,60.87
2018-12-18T22:29:01.088Z,62.17
2018-12-18T22:31:30.755Z,67.83
2018-12-18T22:34:02.242Z,61.73
2018-12-18T22:36:34.073Z,62.10
2018-12-18T22:39:05.322Z,64.53
2018-12-18T22:41:35.266Z,67.47
2018-12-18T22:44:05.208Z,59.20
2018-12-18T22:46:36.122Z,64.47
2018-12-18T22:49:06.031Z,58.93
2018-12-18T22:51:37.117Z,60.17
2018-12-18T22:54:06.890Z,57.30
2018-12-18T22:56:36.590Z,60.87
2018-12-18T22:59:08.530Z,56.93
2018-12-18T23:01:45.122Z,58.70
2018-12-18T23:04:15.460Z,56.57
2018-12-18T23:06:45.809Z,54.63
2018-12-18T23:09:16.416Z,57.07
2018-12-18T23:11:46.933Z,55.80
2018-12-18T23:14:15.798Z,58.87
2018-12-18T23:16:46.125Z,53.70
2018-12-18T23:19:15.878Z,59.77
2018-12-18T23:21:46.519Z,60.10
2018-12-18T23:24:19.199Z,60.20
2018-12-18T23:26:49.932Z,61.93
2018-12-18T23:29:20.841Z,58.20
2018-12-18T23:31:50.448Z,59.97
2018-12-18T23:34:21.373Z,59.20
2018-12-18T23:36:49.773Z,60.70
2018-12-18T23:39:19.444Z,60.37
2018-12-18T23:41:49.042Z,55.20
2018-12-18T23:44:18.746Z,59.77
2018-12-18T23:46:48.341Z,57.10
2018-12-18T23:49:19.174Z,54.97
2018-12-18T23:51:48.778Z,60.30
2018-12-18T23:54:18.448Z,53.83
2018-12-18T23:56:48.034Z,55.10
2018-12-18T23:59:17.696Z,55.60
